Time;durP1;ratioP1;P1;durP2;ratioP2;P2;SDS_P1;SDS_P2;PMS_P1;PMS_P2;Temp;Humidity;BMP_temperature;BMP_pressure;BME280_temperature;BME280_humidity;BME280_pressure;Samples;Min_cycle;Max_cycle;Signal;HPM_P1;HPM_P2
2024/04/14 00:00:59;;;;;;;6.00;4.90;;;;;;;15.37;55.12;100598.14;111583;1252;24313;-70
2024/04/14 00:03:57;;;;;;;6.00;4.80;;;;;;;15.31;55.24;100596.55;111517;1252;21950;-69
2024/04/14 00:06:26;;;;;;;6.80;4.80;;;;;;;15.28;55.53;100594.54;111582;1252;21958;-70
2024/04/14 00:08:55;;;;;;;8.10;5.00;;;;;;;15.25;55.48;100590.85;111208;1251;22035;-70
2024/04/14 00:11:24;;;;;;;8.30;5.80;;;;;;;15.22;55.68;100584.97;111508;1252;21952;-74
2024/04/14 00:13:53;;;;;;;7.00;5.50;;;;;;;15.16;55.81;100582.84;111544;1252;21960;-71
2024/04/14 00:16:22;;;;;;;9.20;6.50;;;;;;;15.09;55.91;100582.35;111552;1252;21960;-70
2024/04/14 00:18:50;;;;;;;9.20;8.00;;;;;;;15.01;56.10;100575.86;111535;1252;23690;-71
2024/04/14 00:21:22;;;;;;;11.10;7.80;;;;;;;14.95;56.28;100572.70;111556;1252;23042;-70
2024/04/14 00:23:51;;;;;;;9.70;8.20;;;;;;;14.89;56.36;100569.30;111518;1252;21957;-71
2024/04/14 00:26:20;;;;;;;11.30;8.60;;;;;;;14.82;56.59;100568.89;111366;1252;21951;-72
2024/04/14 00:28:49;;;;;;;11.10;8.60;;;;;;;14.73;56.92;100564.14;111520;1252;23547;-73
2024/04/14 00:31:18;;;;;;;10.80;8.40;;;;;;;14.67;57.03;100558.06;111387;1252;21963;-70
2024/04/14 00:33:46;;;;;;;11.80;9.40;;;;;;;14.61;57.32;100556.08;111533;1252;24186;-71
2024/04/14 00:36:15;;;;;;;10.00;8.10;;;;;;;14.57;57.43;100551.15;111516;1252;21948;-71
2024/04/14 00:38:44;;;;;;;12.40;8.80;;;;;;;14.50;57.61;100546.86;111535;1252;23003;-71
2024/04/14 00:41:13;;;;;;;9.90;8.90;;;;;;;14.43;57.54;100544.09;111410;1252;21955;-70
2024/04/14 00:43:42;;;;;;;13.20;8.90;;;;;;;14.32;57.92;100540.75;111233;1252;22068;-71
2024/04/14 00:46:11;;;;;;;11.70;8.50;;;;;;;14.21;58.35;100534.70;111376;1252;21948;-71
2024/04/14 00:48:41;;;;;;;8.90;7.80;;;;;;;14.12;58.56;100532.48;111579;1252;22999;-71
2024/04/14 00:51:11;;;;;;;13.10;8.30;;;;;;;14.05;58.84;100523.70;111616;1252;21950;-70
2024/04/14 00:53:40;;;;;;;15.80;9.10;;;;;;;14.02;59.31;100522.14;111212;1252;169361;-70
2024/04/14 00:56:10;;;;;;;10.40;8.80;;;;;;;14.00;59.29;100516.27;111414;1252;23608;-70
2024/04/14 00:58:39;;;;;;;8.90;7.90;;;;;;;13.98;59.59;100513.55;111374;1252;21957;-72
2024/04/14 01:01:08;;;;;;;13.10;8.80;;;;;;;13.96;59.67;100509.14;111356;1252;21957;-71
2024/04/14 01:03:37;;;;;;;11.40;9.20;;;;;;;13.92;59.65;100508.45;111517;1252;21948;-71
2024/04/14 01:06:06;;;;;;;13.90;9.70;;;;;;;13.87;59.79;100506.20;111563;1252;23018;-69
2024/04/14 01:08:35;;;;;;;11.40;9.50;;;;;;;13.83;59.83;100503.48;111529;1252;21948;-71
2024/04/14 01:11:04;;;;;;;13.80;9.60;;;;;;;13.80;59.96;100498.65;111525;1242;21948;-70
2024/04/14 01:13:32;;;;;;;11.90;10.20;;;;;;;13.77;60.06;100493.89;111541;1252;22750;-71
2024/04/14 01:16:01;;;;;;;16.60;10.00;;;;;;;13.75;60.21;100494.06;111518;1252;21959;-73
2024/04/14 01:18:30;;;;;;;13.50;10.80;;;;;;;13.72;60.37;100490.08;111536;1252;22061;-72
2024/04/14 01:20:59;;;;;;;13.30;10.50;;;;;;;13.70;60.43;100489.37;111365;1252;21952;-71
2024/04/14 01:23:27;;;;;;;14.50;11.80;;;;;;;13.67;60.58;100483.25;111514;1252;22412;-71
2024/04/14 01:25:56;;;;;;;14.60;12.30;;;;;;;13.65;60.66;100483.20;111340;1252;23633;-71
2024/04/14 01:28:25;;;;;;;15.30;13.40;;;;;;;13.63;60.78;100479.98;111247;1253;21952;-71
2024/04/14 01:30:54;;;;;;;16.70;15.00;;;;;;;13.61;60.79;100477.11;111539;1252;23103;-71
2024/04/14 01:33:22;;;;;;;16.00;14.30;;;;;;;13.60;60.83;100473.35;111485;1252;22628;-71
2024/04/14 01:35:51;;;;;;;17.20;15.30;;;;;;;13.57;61.00;100472.15;111221;1252;21955;-70
2024/04/14 01:38:20;;;;;;;18.10;15.90;;;;;;;13.53;60.91;100474.98;111514;1252;23589;-69
2024/04/14 01:40:54;;;;;;;19.30;15.10;;;;;;;13.47;61.23;100471.52;111548;1252;22949;-70
2024/04/14 01:43:23;;;;;;;19.10;15.90;;;;;;;13.42;61.29;100468.58;111535;1252;21952;-72
2024/04/14 01:45:54;;;;;;;25.00;22.30;;;;;;;13.37;61.43;100464.94;111499;1252;22024;-69
2024/04/14 01:48:23;;;;;;;20.50;18.40;;;;;;;13.31;61.48;100461.53;111209;1252;22751;-70
2024/04/14 01:50:52;;;;;;;20.80;18.60;;;;;;;13.27;61.71;100457.23;111420;1252;22090;-69
2024/04/14 01:53:21;;;;;;;17.10;13.00;;;;;;;13.24;61.98;100452.16;111309;1252;21955;-70
2024/04/14 01:55:50;;;;;;;14.80;12.00;;;;;;;13.22;62.09;100443.63;111515;1252;23680;-71
2024/04/14 01:58:19;;;;;;;13.20;11.90;;;;;;;13.20;62.19;100438.85;112242;1252;23580;-71
2024/04/14 02:00:48;;;;;;;14.80;12.10;;;;;;;13.18;62.32;100431.59;111589;1252;21923;-70
2024/04/14 02:03:17;;;;;;;14.70;11.60;;;;;;;13.17;62.42;100430.74;111655;1252;21948;-71
2024/04/14 02:05:55;;;;;;;12.50;11.20;;;;;;;13.17;62.62;100427.24;111544;1252;21983;-73
2024/04/14 02:08:25;;;;;;;12.00;10.80;;;;;;;13.16;62.75;100421.64;111301;1253;22415;-73
2024/04/14 02:10:53;;;;;;;14.00;11.70;;;;;;;13.19;62.59;100419.80;111540;1252;21952;-70
2024/04/14 02:13:22;;;;;;;12.10;10.80;;;;;;;13.22;62.54;100416.80;111397;1253;21955;-70
2024/04/14 02:15:51;;;;;;;13.70;11.70;;;;;;;13.23;62.51;100414.58;111252;1247;21966;-70
2024/04/14 02:18:20;;;;;;;13.30;11.10;;;;;;;13.22;62.63;100412.70;111119;1253;21957;-70
2024/04/14 02:20:49;;;;;;;14.30;12.80;;;;;;;13.23;62.58;100409.98;111648;1252;21955;-70
2024/04/14 02:23:19;;;;;;;14.10;12.20;;;;;;;13.21;62.49;100403.77;111501;1253;23026;-71
2024/04/14 02:25:58;;;;;;;12.40;11.10;;;;;;;13.18;62.63;100401.36;111488;1252;21952;-71
2024/04/14 02:28:27;;;;;;;20.60;16.70;;;;;;;13.15;62.87;100391.35;111591;1252;22846;-69
2024/04/14 02:30:56;;;;;;;33.40;29.60;;;;;;;13.14;62.84;100386.16;111511;1252;21965;-70
2024/04/14 02:33:25;;;;;;;19.30;13.70;;;;;;;13.11;62.91;100382.31;111533;1252;22007;-72
2024/04/14 02:36:02;;;;;;;15.80;14.20;;;;;;;13.06;63.08;100372.80;111508;1252;21956;-70
2024/04/14 02:38:31;;;;;;;16.20;14.50;;;;;;;12.99;62.94;100368.59;111264;1252;22968;-70
2024/04/14 02:41:03;;;;;;;17.20;15.50;;;;;;;12.90;63.23;100366.43;111281;1252;21952;-69
2024/04/14 02:43:35;;;;;;;;;;;;;;;12.81;63.62;100367.52;111582;1253;21932;-70
2024/04/14 02:46:04;;;;;;;14.50;12.80;;;;;;;12.63;64.16;100358.75;111502;1252;21956;-71
2024/04/14 02:48:33;;;;;;;17.10;13.40;;;;;;;12.58;64.16;100352.58;111413;1253;22013;-72
2024/04/14 02:51:02;;;;;;;14.60;13.10;;;;;;;12.58;64.28;100350.81;111303;1252;23663;-71
2024/04/14 02:53:31;;;;;;;14.70;13.00;;;;;;;12.59;64.55;100354.64;111610;1253;22724;-71
2024/04/14 02:56:00;;;;;;;13.30;12.00;;;;;;;12.63;64.56;100352.73;111306;1250;21969;-71
2024/04/14 02:58:28;;;;;;;16.50;11.70;;;;;;;12.66;64.61;100350.14;111216;1253;23008;-70
2024/04/14 03:01:00;;;;;;;13.00;11.70;;;;;;;12.68;64.54;100347.56;111540;1252;22417;-70
2024/04/14 03:03:29;;;;;;;;;;;;;;;12.70;64.36;100343.88;111552;1252;21935;-71
2024/04/14 03:06:03;;;;;;;13.40;11.60;;;;;;;12.64;64.79;100342.77;111544;1252;21966;-70
2024/04/14 03:08:32;;;;;;;13.90;12.30;;;;;;;12.66;64.55;100343.81;111545;1252;23601;-72
2024/04/14 03:11:02;;;;;;;11.90;10.70;;;;;;;12.69;64.52;100339.66;111534;1253;21954;-73
2024/04/14 03:13:31;;;;;;;14.50;12.30;;;;;;;12.72;64.79;100339.44;111542;1252;23114;-69
2024/04/14 03:16:02;;;;;;;14.10;10.50;;;;;;;12.75;64.77;100337.77;111223;1252;21988;-70
2024/04/14 03:18:32;;;;;;;12.90;10.30;;;;;;;12.78;64.70;100337.41;111275;1252;22126;-73
2024/04/14 03:21:02;;;;;;;13.50;10.20;;;;;;;12.80;64.91;100339.17;111109;1253;23480;-71
2024/04/14 03:23:32;;;;;;;11.40;9.70;;;;;;;12.81;64.93;100343.52;111276;1252;23015;-70
2024/04/14 03:26:01;;;;;;;15.60;10.10;;;;;;;12.82;65.11;100339.17;111270;1252;21945;-68
2024/04/14 03:28:30;;;;;;;11.50;10.10;;;;;;;12.84;65.18;100338.16;111252;1252;23754;-70
2024/04/14 03:31:00;;;;;;;15.30;9.20;;;;;;;12.85;65.11;100333.81;111530;1252;22680;-69
2024/04/14 03:33:30;;;;;;;10.00;8.40;;;;;;;12.87;65.06;100329.60;111357;1252;21972;-70
2024/04/14 03:36:04;;;;;;;10.80;9.10;;;;;;;12.87;65.19;100323.91;111607;1253;22752;-70
2024/04/14 03:38:34;;;;;;;12.20;8.60;;;;;;;12.89;65.31;100324.84;111389;1253;24431;-73
2024/04/14 03:41:03;;;;;;;13.10;8.60;;;;;;;12.90;65.48;100322.98;111747;1252;22090;-72
2024/04/14 03:43:34;;;;;;;11.90;8.50;;;;;;;12.91;65.61;100319.02;111423;1252;23042;-73
2024/04/14 03:46:03;;;;;;;11.40;9.00;;;;;;;12.93;65.81;100317.10;111163;1252;23569;-72
2024/04/14 03:48:32;;;;;;;13.70;10.00;;;;;;;12.94;65.58;100313.44;111651;1252;21963;-72
2024/04/14 03:51:01;;;;;;;11.40;9.20;;;;;;;12.97;65.51;100312.68;111578;1253;23058;-69
2024/04/14 03:53:30;;;;;;;11.90;9.10;;;;;;;12.98;65.52;100309.56;111560;1253;21958;-70
2024/04/14 03:55:58;;;;;;;12.00;9.90;;;;;;;12.99;65.48;100308.84;111253;1252;21952;-70
2024/04/14 03:58:27;;;;;;;23.60;13.60;;;;;;;12.97;65.64;100311.98;111359;1252;21969;-70
2024/04/14 04:00:56;;;;;;;15.20;10.50;;;;;;;12.95;65.66;100312.66;111437;1252;23261;-71
2024/04/14 04:03:26;;;;;;;19.40;10.80;;;;;;;12.94;65.59;100309.39;111542;1252;21984;-72
2024/04/14 04:05:56;;;;;;;17.80;12.20;;;;;;;12.94;65.38;100309.78;111512;1243;21954;-70
2024/04/14 04:08:24;;;;;;;13.30;10.40;;;;;;;12.94;65.28;100307.63;111228;1253;23579;-70
2024/04/14 04:11:04;;;;;;;15.80;11.50;;;;;;;12.94;65.57;100303.72;111353;1253;21954;-70
2024/04/14 04:13:34;;;;;;;14.10;10.30;;;;;;;12.95;65.64;100298.90;111277;1253;23693;-69
2024/04/14 04:16:06;;;;;;;26.40;13.40;;;;;;;12.97;65.72;100295.52;111318;1253;21973;-71
2024/04/14 04:18:35;;;;;;;13.30;11.00;;;;;;;13.01;65.67;100294.52;111389;1253;23653;-71
2024/04/14 04:21:09;;;;;;;14.80;12.80;;;;;;;13.09;65.70;100291.11;111518;1253;22505;-72
2024/04/14 04:23:40;;;;;;;13.70;12.20;;;;;;;13.14;65.57;100286.89;111392;1253;23618;-69
2024/04/14 04:26:09;;;;;;;11.50;9.70;;;;;;;13.20;65.45;100281.87;111033;1253;21952;-70
2024/04/14 04:28:38;;;;;;;9.90;7.90;;;;;;;13.25;65.53;100277.92;111079;1253;21958;-70
2024/04/14 04:31:15;;;;;;;12.30;8.90;;;;;;;13.33;65.62;100274.03;111257;1253;21995;-70
2024/04/14 04:33:44;;;;;;;11.10;9.40;;;;;;;13.44;65.22;100277.69;111412;1253;21957;-69
2024/04/14 04:36:13;;;;;;;11.70;7.60;;;;;;;13.56;65.04;100276.80;110888;1253;21949;-69
2024/04/14 04:38:44;;;;;;;8.20;6.30;;;;;;;13.67;64.89;100271.10;110975;1253;21956;-70
2024/04/14 04:41:13;;;;;;;10.10;6.10;;;;;;;13.79;64.42;100264.22;111381;1253;22776;-69
2024/04/14 04:43:42;;;;;;;9.50;6.10;;;;;;;13.92;64.06;100265.02;111278;1251;21953;-72
2024/04/14 04:46:11;;;;;;;8.90;6.20;;;;;;;14.07;63.73;100267.33;111304;1253;21996;-71
2024/04/14 04:48:39;;;;;;;9.00;6.20;;;;;;;14.22;63.27;100266.92;111239;1253;23546;-71
2024/04/14 04:51:08;;;;;;;8.20;5.90;;;;;;;14.36;62.88;100271.33;111265;1253;22236;-70
2024/04/14 04:53:37;;;;;;;6.70;5.40;;;;;;;14.50;62.33;100268.56;111236;1253;21955;-70
2024/04/14 04:56:06;;;;;;;10.20;6.00;;;;;;;14.63;61.94;100267.94;111234;1253;21959;-71
2024/04/14 04:58:35;;;;;;;6.90;5.20;;;;;;;14.77;61.42;100267.56;111252;1253;21964;-71
2024/04/14 05:01:04;;;;;;;12.30;5.70;;;;;;;14.90;60.94;100265.18;110956;1252;21941;-70
2024/04/14 05:03:33;;;;;;;8.50;5.30;;;;;;;15.02;60.62;100266.58;111372;1253;21955;-73
2024/04/14 05:06:04;;;;;;;6.80;5.30;;;;;;;15.14;60.34;100261.77;111258;1253;21957;-72
2024/04/14 05:08:33;;;;;;;9.20;5.90;;;;;;;15.27;60.37;100259.56;111360;1253;22055;-70
2024/04/14 05:11:02;;;;;;;12.00;5.10;;;;;;;15.42;59.78;100257.80;111290;1253;23008;-70
2024/04/14 05:13:31;;;;;;;7.60;5.30;;;;;;;15.51;59.41;100261.43;111337;1253;21962;-72
2024/04/14 05:16:03;;;;;;;8.40;5.90;;;;;;;15.62;58.73;100257.60;111429;1253;22419;-72
2024/04/14 05:18:31;;;;;;;13.00;6.70;;;;;;;15.72;58.29;100262.19;111292;1253;22261;-70
2024/04/14 05:21:01;;;;;;;10.70;5.30;;;;;;;15.82;58.19;100261.90;111313;1252;21974;-71
2024/04/14 05:23:29;;;;;;;7.70;4.60;;;;;;;15.96;57.85;100254.18;111237;1253;23046;-74
2024/04/14 05:26:00;;;;;;;8.70;4.90;;;;;;;16.05;57.56;100256.70;111289;1253;21958;-71
2024/04/14 05:28:29;;;;;;;6.20;4.90;;;;;;;16.15;57.26;100261.11;111281;1242;22741;-73
2024/04/14 05:30:57;;;;;;;10.60;5.30;;;;;;;16.24;56.92;100258.50;111224;1242;22145;-71
2024/04/14 05:33:26;;;;;;;6.10;4.60;;;;;;;16.32;56.45;100256.64;111299;1253;21960;-71
2024/04/14 05:35:57;;;;;;;7.30;5.10;;;;;;;16.40;56.37;100255.52;111357;1253;22041;-71
2024/04/14 05:38:26;;;;;;;7.50;5.10;;;;;;;16.49;56.13;100251.72;111313;1253;21958;-72
2024/04/14 05:40:55;;;;;;;5.60;4.30;;;;;;;16.56;55.81;100254.38;111210;1253;21989;-70
2024/04/14 05:43:23;;;;;;;9.20;5.00;;;;;;;16.66;55.65;100253.56;111248;1253;23046;-72
2024/04/14 05:45:53;;;;;;;5.40;4.20;;;;;;;16.74;55.28;100257.48;111274;1253;23592;-73
2024/04/14 05:48:22;;;;;;;7.90;4.60;;;;;;;16.83;55.21;100253.30;111266;1253;21963;-73
2024/04/14 05:50:51;;;;;;;7.80;4.10;;;;;;;16.94;54.63;100248.52;111285;1253;24302;-73
2024/04/14 05:53:19;;;;;;;8.90;4.30;;;;;;;17.03;54.38;100247.45;111270;1253;21962;-73
2024/04/14 05:55:48;;;;;;;7.60;4.70;;;;;;;17.10;54.37;100249.06;111241;1253;21942;-71
2024/04/14 05:58:17;;;;;;;7.30;4.80;;;;;;;17.18;54.20;100252.40;111217;1253;21963;-72
2024/04/14 06:00:45;;;;;;;5.30;4.20;;;;;;;17.27;53.83;100245.44;111259;1253;21952;-70
2024/04/14 06:03:14;;;;;;;10.70;4.90;;;;;;;17.37;53.93;100244.04;111271;1253;23694;-70
2024/04/14 06:05:48;;;;;;;7.30;4.10;;;;;;;17.49;53.75;100249.46;111302;1253;23094;-72
2024/04/14 06:08:17;;;;;;;7.00;4.40;;;;;;;17.61;53.32;100252.48;111307;1253;23102;-73
2024/04/14 06:10:46;;;;;;;5.50;4.70;;;;;;;17.74;53.14;100247.26;110996;1253;21963;-71
2024/04/14 06:13:15;;;;;;;7.90;4.20;;;;;;;17.86;52.68;100242.27;111281;1253;22461;-72
2024/04/14 06:15:44;;;;;;;5.90;4.40;;;;;;;18.03;52.28;100239.39;111283;1253;21960;-73
2024/04/14 06:18:17;;;;;;;7.10;4.80;;;;;;;18.15;51.95;100239.73;111316;1253;21969;-72
2024/04/14 06:20:46;;;;;;;7.30;5.10;;;;;;;18.26;51.72;100240.36;111271;1253;22306;-71
2024/04/14 06:23:15;;;;;;;12.50;4.60;;;;;;;18.38;51.31;100238.38;111316;1253;21956;-72
2024/04/14 06:25:48;;;;;;;4.50;4.10;;;;;;;18.51;51.03;100238.98;111599;1253;21959;-72
2024/04/14 06:28:17;;;;;;;7.80;5.30;;;;;;;18.64;50.83;100242.81;111560;1253;23682;-71
2024/04/14 06:30:45;;;;;;;7.20;4.40;;;;;;;18.76;50.62;100247.19;111323;1253;21928;-73
2024/04/14 06:33:14;;;;;;;6.10;4.70;;;;;;;18.91;50.36;100252.05;111309;1249;23595;-72
2024/04/14 06:35:43;;;;;;;7.90;5.10;;;;;;;19.05;50.16;100259.70;111338;1253;23010;-71
2024/04/14 06:38:12;;;;;;;9.40;4.50;;;;;;;19.15;50.06;100262.34;111343;1252;21967;-71
2024/04/14 06:40:41;;;;;;;8.70;4.60;;;;;;;19.23;50.01;100267.34;111319;1253;21983;-71
2024/04/14 06:43:09;;;;;;;8.90;5.40;;;;;;;19.33;50.00;100264.97;110993;1253;21952;-72
2024/04/14 06:45:38;;;;;;;8.00;4.30;;;;;;;19.46;49.84;100263.65;111434;1253;22012;-70
2024/04/14 06:48:07;;;;;;;6.60;5.10;;;;;;;19.62;49.49;100260.48;111289;1241;21963;-72
2024/04/14 06:50:36;;;;;;;8.20;4.50;;;;;;;19.72;49.08;100261.13;111210;1253;23020;-71
2024/04/14 06:53:05;;;;;;;10.50;3.90;;;;;;;19.79;48.94;100263.39;111346;1253;22538;-70
2024/04/14 06:55:34;;;;;;;6.00;4.40;;;;;;;19.85;48.90;100268.23;111309;1253;21963;-72
2024/04/14 06:58:04;;;;;;;9.50;4.20;;;;;;;19.88;48.68;100265.27;111288;1253;23703;-76
2024/04/14 07:00:33;;;;;;;12.80;3.60;;;;;;;19.90;48.72;100266.83;111527;1252;23724;-73
2024/04/14 07:03:02;;;;;;;5.00;3.70;;;;;;;19.93;48.52;100265.08;111677;1252;21968;-71
2024/04/14 07:05:31;;;;;;;5.10;3.50;;;;;;;19.97;48.56;100265.55;111539;1252;23706;-72
2024/04/14 07:08:00;;;;;;;7.60;3.70;;;;;;;20.05;48.52;100272.48;111487;1252;23015;-72
2024/04/14 07:10:28;;;;;;;5.40;3.40;;;;;;;20.14;48.40;100271.85;111299;1252;23556;-71
2024/04/14 07:12:57;;;;;;;7.70;3.80;;;;;;;20.27;48.28;100274.27;111511;1251;21953;-74
2024/04/14 07:15:26;;;;;;;4.40;3.80;;;;;;;20.38;47.93;100275.02;111278;1252;21955;-72
2024/04/14 07:17:55;;;;;;;13.20;4.00;;;;;;;20.44;47.88;100274.94;111587;1253;21954;-71
2024/04/14 07:20:24;;;;;;;5.00;3.10;;;;;;;20.55;47.62;100277.44;111499;1252;23543;-72
2024/04/14 07:22:52;;;;;;;5.40;3.10;;;;;;;20.64;47.32;100272.70;111478;1252;24699;-73
2024/04/14 07:25:22;;;;;;;5.80;3.50;;;;;;;20.70;47.19;100274.17;111531;1252;21952;-71
2024/04/14 07:27:51;;;;;;;5.20;3.60;;;;;;;20.80;47.29;100269.38;111508;1252;22530;-71
2024/04/14 07:30:20;;;;;;;9.60;4.50;;;;;;;21.02;47.14;100264.89;111482;1252;23820;-73
2024/04/14 07:32:49;;;;;;;7.00;3.90;;;;;;;21.22;46.50;100262.88;111500;1252;22005;-74
2024/04/14 07:35:18;;;;;;;4.40;4.00;;;;;;;21.46;46.22;100262.66;111480;1252;22868;-71
2024/04/14 07:37:46;;;;;;;5.10;3.70;;;;;;;21.67;45.43;100266.45;111270;1252;21955;-72
2024/04/14 07:40:15;;;;;;;5.40;3.50;;;;;;;21.78;45.22;100267.64;111522;1245;22011;-75
2024/04/14 07:42:44;;;;;;;6.10;3.40;;;;;;;21.93;45.21;100266.48;111469;1252;23569;-72
2024/04/14 07:45:13;;;;;;;6.00;4.20;;;;;;;22.09;44.93;100265.36;111502;1252;21953;-73
2024/04/14 07:47:42;;;;;;;6.50;3.20;;;;;;;22.24;44.62;100270.92;111238;1252;23595;-74
2024/04/14 07:50:12;;;;;;;5.60;3.50;;;;;;;22.36;44.33;100271.13;111419;1252;21972;-73
2024/04/14 07:52:41;;;;;;;9.20;3.40;;;;;;;22.43;43.80;100272.63;111436;1252;23673;-72
2024/04/14 07:55:10;;;;;;;6.20;4.30;;;;;;;22.55;43.85;100271.89;111458;1252;21959;-72
2024/04/14 07:57:42;;;;;;;10.50;3.50;;;;;;;22.69;43.47;100274.84;111516;1252;21962;-74
2024/04/14 08:00:11;;;;;;;6.60;3.90;;;;;;;22.79;43.36;100273.59;111241;1253;21967;-74
2024/04/14 08:02:42;;;;;;;8.60;3.20;;;;;;;22.88;42.87;100268.86;111228;1252;21992;-75
2024/04/14 08:05:11;;;;;;;11.60;4.00;;;;;;;22.91;42.83;100267.08;111253;1252;23723;-72
2024/04/14 08:07:40;;;;;;;7.60;4.10;;;;;;;22.92;42.93;100270.34;111522;1246;22726;-75
2024/04/14 08:10:09;;;;;;;6.30;4.00;;;;;;;22.98;42.97;100267.84;111495;1252;22013;-73
2024/04/14 08:12:37;;;;;;;9.50;5.00;;;;;;;23.12;42.63;100268.29;111515;1252;21939;-72
2024/04/14 08:15:06;;;;;;;7.00;3.60;;;;;;;23.24;42.39;100273.27;111523;1252;23038;-73
2024/04/14 08:17:35;;;;;;;7.30;3.90;;;;;;;23.43;42.06;100278.20;111490;1252;21961;-72
2024/04/14 08:20:04;;;;;;;9.80;4.90;;;;;;;23.62;41.38;100280.30;111266;1252;22036;-72
2024/04/14 08:22:33;;;;;;;16.10;4.10;;;;;;;23.68;41.25;100275.02;111513;1253;23015;-73
2024/04/14 08:25:02;;;;;;;14.50;4.40;;;;;;;23.70;40.97;100275.54;111518;1252;22341;-71
2024/04/14 08:27:31;;;;;;;9.40;5.00;;;;;;;23.71;41.14;100277.25;111564;1252;22927;-71
2024/04/14 08:30:00;;;;;;;15.30;5.50;;;;;;;23.78;40.76;100274.33;111701;1251;22736;-75
2024/04/14 08:32:29;;;;;;;15.20;5.00;;;;;;;23.86;40.54;100272.02;111812;1251;21967;-72
2024/04/14 08:34:58;;;;;;;10.30;5.00;;;;;;;23.94;40.66;100270.54;111363;1247;23029;-73
2024/04/14 08:37:27;;;;;;;12.00;4.90;;;;;;;24.03;40.28;100268.98;111595;1251;22709;-72
2024/04/14 08:39:55;;;;;;;13.10;5.10;;;;;;;23.98;40.08;100272.67;111631;1251;21985;-74
2024/04/14 08:42:25;;;;;;;10.70;5.00;;;;;;;23.89;40.40;100268.55;111643;1238;21994;-74
2024/04/14 08:44:54;;;;;;;11.70;5.50;;;;;;;23.86;40.47;100274.17;111608;1251;22574;-71
2024/04/14 08:47:23;;;;;;;9.40;4.90;;;;;;;23.67;40.56;100285.59;111391;1251;23048;-71
2024/04/14 08:49:53;;;;;;;6.10;4.00;;;;;;;23.40;40.67;100292.58;111369;1251;21954;-71
2024/04/14 08:52:24;;;;;;;12.30;4.70;;;;;;;23.14;40.80;100295.11;111614;1251;23070;-74
2024/04/14 08:54:52;;;;;;;8.90;4.20;;;;;;;22.83;41.01;100302.52;111635;1244;23437;-71
2024/04/14 08:57:26;;;;;;;10.60;4.50;;;;;;;22.51;41.23;100301.93;111593;1251;21965;-70
2024/04/14 08:59:58;;;;;;;10.20;3.90;;;;;;;22.26;40.76;100302.09;111397;1238;23015;-71
2024/04/14 09:02:28;;;;;;;11.40;4.00;;;;;;;22.08;41.08;100305.02;111589;1241;23016;-72
2024/04/14 09:04:58;;;;;;;12.80;4.50;;;;;;;21.91;41.46;100311.28;111346;1251;21941;-71
2024/04/14 09:07:27;;;;;;;14.30;4.40;;;;;;;21.78;41.42;100317.54;111681;1251;22199;-70
2024/04/14 09:09:56;;;;;;;11.30;3.80;;;;;;;21.66;41.34;100322.98;111593;1251;22721;-71
2024/04/14 09:12:24;;;;;;;9.10;3.30;;;;;;;21.65;41.35;100324.02;111566;1251;23776;-73
2024/04/14 09:14:53;;;;;;;8.50;3.80;;;;;;;21.69;41.54;100325.69;111563;1251;23708;-70
2024/04/14 09:17:22;;;;;;;6.00;3.50;;;;;;;21.80;41.52;100321.34;111562;1251;21959;-73
2024/04/14 09:19:51;;;;;;;16.30;4.40;;;;;;;21.99;41.41;100315.54;111706;1251;23672;-71
2024/04/14 09:22:20;;;;;;;7.70;3.30;;;;;;;22.13;40.46;100320.36;111574;1251;21962;-71
2024/04/14 09:24:50;;;;;;;9.70;3.50;;;;;;;22.29;40.71;100326.30;111297;1251;22038;-69
2024/04/14 09:27:21;;;;;;;10.10;4.40;;;;;;;22.50;39.31;100334.63;111571;1241;21962;-70
2024/04/14 09:29:52;;;;;;;13.60;4.30;;;;;;;22.34;38.69;100336.80;111553;1251;22403;-72
2024/04/14 09:32:21;;;;;;;9.10;3.90;;;;;;;22.19;39.27;100338.64;111528;1252;21947;-72
2024/04/14 09:34:49;;;;;;;5.30;3.50;;;;;;;22.20;39.69;100332.48;111459;1252;21968;-73
2024/04/14 09:37:20;;;;;;;8.80;4.30;;;;;;;22.35;39.37;100330.38;111490;1252;22978;-72
2024/04/14 09:39:49;;;;;;;9.40;4.70;;;;;;;22.38;38.98;100332.73;111441;1252;21964;-70
2024/04/14 09:42:19;;;;;;;13.20;5.10;;;;;;;22.41;39.26;100331.89;111496;1250;23602;-73
2024/04/14 09:44:49;;;;;;;22.90;4.90;;;;;;;22.70;39.16;100331.93;111291;1252;23675;-72
2024/04/14 09:47:20;;;;;;;;;;;;;;;23.03;38.97;100334.20;111524;1252;21933;-73
2024/04/14 09:49:52;;;;;;;10.60;4.60;;;;;;;23.15;38.54;100328.95;111023;1252;21966;-71
2024/04/14 09:52:22;;;;;;;11.70;4.00;;;;;;;23.10;37.97;100328.16;110990;1252;22579;-71
2024/04/14 09:54:53;;;;;;;11.90;3.80;;;;;;;22.96;38.13;100324.84;111539;1252;23012;-71
2024/04/14 09:57:22;;;;;;;16.50;11.00;;;;;;;22.94;38.58;100321.65;111252;1252;21956;-73
2024/04/14 09:59:52;;;;;;;11.30;4.70;;;;;;;23.07;38.92;100321.70;111195;1252;23384;-73
2024/04/14 10:02:30;;;;;;;13.40;4.10;;;;;;;23.24;38.55;100322.06;111148;1252;22922;-73
2024/04/14 10:05:01;;;;;;;6.00;3.60;;;;;;;23.37;37.64;100318.09;111361;1252;24293;-72
2024/04/14 10:07:30;;;;;;;9.80;3.40;;;;;;;23.39;37.34;100323.97;111327;1252;21956;-74
2024/04/14 10:09:59;;;;;;;5.80;2.80;;;;;;;23.30;37.58;100328.01;111499;1252;23055;-74
2024/04/14 10:12:28;;;;;;;9.40;3.60;;;;;;;23.12;37.70;100330.95;111545;1252;21962;-72
2024/04/14 10:15:02;;;;;;;7.80;3.20;;;;;;;22.91;38.12;100334.27;111514;1252;21980;-74
2024/04/14 10:17:36;;;;;;;6.20;2.90;;;;;;;22.61;38.55;100332.64;111266;1252;22060;-74
2024/04/14 10:20:16;;;;;;;79.60;8.30;;;;;;;22.33;38.82;100334.84;111496;1252;24102;-72
2024/04/14 10:22:46;;;;;;;15.40;5.10;;;;;;;22.00;39.09;100350.90;111539;1252;22205;-70
2024/04/14 10:25:25;;;;;;;8.60;3.10;;;;;;;21.69;39.14;100361.42;111514;1252;22916;-72
2024/04/14 10:27:54;;;;;;;14.90;3.60;;;;;;;21.36;39.32;100361.14;111581;1252;23703;-70
2024/04/14 10:30:24;;;;;;;16.70;3.40;;;;;;;21.02;39.41;100361.18;111517;1252;21963;-71
2024/04/14 10:33:03;;;;;;;10.00;2.90;;;;;;;20.73;39.53;100360.34;111598;1252;21959;-73
2024/04/14 10:35:32;;;;;;;19.00;3.00;;;;;;;20.50;39.60;100364.05;111559;1252;23529;-74
2024/04/14 10:38:01;;;;;;;8.90;3.10;;;;;;;20.30;40.01;100362.89;111516;1252;21959;-71
2024/04/14 10:40:30;;;;;;;8.00;2.80;;;;;;;20.14;40.66;100365.55;111275;1252;23999;-74
2024/04/14 10:43:00;;;;;;;6.10;2.60;;;;;;;20.00;40.56;100367.91;111497;1252;23583;-70
2024/04/14 10:45:29;;;;;;;7.70;2.50;;;;;;;19.89;40.41;100370.44;111506;1252;21970;-70
2024/04/14 10:47:58;;;;;;;10.40;3.20;;;;;;;19.79;40.82;100367.00;111494;1252;21980;-71
2024/04/14 10:50:28;;;;;;;5.50;3.00;;;;;;;19.74;40.88;100369.55;111459;1252;23659;-70
2024/04/14 10:52:56;;;;;;;6.50;2.80;;;;;;;19.69;40.97;100376.48;111483;1252;21963;-70
2024/04/14 10:55:25;;;;;;;7.30;2.90;;;;;;;19.62;41.16;100377.67;111267;1252;21964;-69
2024/04/14 10:57:54;;;;;;;11.30;3.40;;;;;;;19.53;41.43;100384.32;111481;1249;23009;-68
2024/04/14 11:00:24;;;;;;;9.10;3.10;;;;;;;19.46;41.86;100383.24;111499;1252;22849;-72
2024/04/14 11:02:53;;;;;;;8.50;3.40;;;;;;;19.45;42.22;100383.73;111503;1252;23700;-69
2024/04/14 11:05:23;;;;;;;6.80;3.00;;;;;;;19.44;42.48;100383.23;111477;1252;23003;-70
2024/04/14 11:07:53;;;;;;;6.70;2.80;;;;;;;19.43;42.60;100378.58;111531;1252;23798;-71
2024/04/14 11:10:22;;;;;;;6.90;2.80;;;;;;;19.49;42.88;100375.11;111261;1252;23080;-72
2024/04/14 11:12:52;;;;;;;5.90;2.90;;;;;;;19.73;43.04;100381.51;111617;1252;21953;-68
2024/04/14 11:15:21;;;;;;;6.40;3.00;;;;;;;20.00;42.61;100378.54;111331;1252;21959;-75
2024/04/14 11:17:49;;;;;;;7.20;3.10;;;;;;;20.19;42.24;100371.55;111261;1252;21942;-70
2024/04/14 11:20:18;;;;;;;3.90;2.50;;;;;;;20.37;42.07;100366.67;111502;1252;22421;-69
2024/04/14 11:22:47;;;;;;;11.00;2.60;;;;;;;20.51;41.26;100367.14;111473;1252;23076;-70